Union City, California
Current Conditions -  °F | °C
As of 12:54 PM on Friday 19 Dec 2014 (Local Time) from KHWD Reporting Station
Light Rain Light Rain  
Wind Chill: 59°   Ceiling: 8000
Heat Index: 59°   Visibility: 9mi
Dew Point: 53°   Wind: 9mph
Humidity: 81%   Direction: 150°SSE
Pressure: 30.13"   Gusts: NA
Location:  37.59°N, 122.02°W
Report Text: KHWD 192054Z 15008KT 9SM -RA FEW044 SCT050 OVC080 15/12 A3013 RMK AO2 RAB00 SLP211 P0000 60004 T01500117
Loading
Personal Weather Stations






























Interactive Weather Map New forecast layout! Learn more

10-Day Weather Forecast

Advertisements
Track Severe Weather on mobile